sensor_id;sensor_type;location;lat;lon;timestamp;temperature;humidity
29663;DHT22;16578;53.266;7.920;2023-02-03T00:01:58;11.80;80.80
29663;DHT22;16578;53.266;7.920;2023-02-03T00:04:23;11.80;80.70
29663;DHT22;16578;53.266;7.920;2023-02-03T00:06:49;11.80;80.60
29663;DHT22;16578;53.266;7.920;2023-02-03T00:09:15;11.80;80.70
29663;DHT22;16578;53.266;7.920;2023-02-03T00:11:41;11.80;80.60
29663;DHT22;16578;53.266;7.920;2023-02-03T00:14:06;11.80;80.60
29663;DHT22;16578;53.266;7.920;2023-02-03T00:16:33;11.80;80.60
29663;DHT22;16578;53.266;7.920;2023-02-03T00:18:59;11.80;80.50
29663;DHT22;16578;53.266;7.920;2023-02-03T00:21:25;11.80;80.50
29663;DHT22;16578;53.266;7.920;2023-02-03T00:23:50;11.80;80.50
29663;DHT22;16578;53.266;7.920;2023-02-03T00:26:16;11.80;80.50
29663;DHT22;16578;53.266;7.920;2023-02-03T00:28:43;11.80;80.40
29663;DHT22;16578;53.266;7.920;2023-02-03T00:31:19;11.80;80.40
29663;DHT22;16578;53.266;7.920;2023-02-03T00:33:46;11.80;80.40
29663;DHT22;16578;53.266;7.920;2023-02-03T00:36:12;11.80;80.40
29663;DHT22;16578;53.266;7.920;2023-02-03T00:38:38;11.80;80.30
29663;DHT22;16578;53.266;7.920;2023-02-03T00:41:03;11.80;80.30
29663;DHT22;16578;53.266;7.920;2023-02-03T00:43:29;11.80;80.30
29663;DHT22;16578;53.266;7.920;2023-02-03T00:45:55;11.80;80.30
29663;DHT22;16578;53.266;7.920;2023-02-03T00:48:21;11.80;80.30
29663;DHT22;16578;53.266;7.920;2023-02-03T00:50:47;11.80;80.30
29663;DHT22;16578;53.266;7.920;2023-02-03T00:53:13;11.80;80.20
29663;DHT22;16578;53.266;7.920;2023-02-03T00:55:38;11.80;80.20
29663;DHT22;16578;53.266;7.920;2023-02-03T00:58:04;11.80;80.20
29663;DHT22;16578;53.266;7.920;2023-02-03T01:00:30;11.80;80.20
29663;DHT22;16578;53.266;7.920;2023-02-03T01:02:56;11.80;80.10
29663;DHT22;16578;53.266;7.920;2023-02-03T01:05:22;11.80;80.00
29663;DHT22;16578;53.266;7.920;2023-02-03T01:07:47;11.80;80.10
29663;DHT22;16578;53.266;7.920;2023-02-03T01:10:13;11.80;80.00
29663;DHT22;16578;53.266;7.920;2023-02-03T01:12:39;11.80;80.00
29663;DHT22;16578;53.266;7.920;2023-02-03T01:15:05;11.80;80.00
29663;DHT22;16578;53.266;7.920;2023-02-03T01:17:30;11.80;80.00
29663;DHT22;16578;53.266;7.920;2023-02-03T01:19:56;11.80;79.80
29663;DHT22;16578;53.266;7.920;2023-02-03T01:22:22;11.80;79.80
29663;DHT22;16578;53.266;7.920;2023-02-03T01:24:47;11.90;79.80
29663;DHT22;16578;53.266;7.920;2023-02-03T01:27:13;11.80;79.70
29663;DHT22;16578;53.266;7.920;2023-02-03T01:29:38;11.80;79.70
29663;DHT22;16578;53.266;7.920;2023-02-03T01:32:04;11.80;79.70
29663;DHT22;16578;53.266;7.920;2023-02-03T01:34:29;11.80;79.60
29663;DHT22;16578;53.266;7.920;2023-02-03T01:36:55;11.80;79.60
29663;DHT22;16578;53.266;7.920;2023-02-03T01:39:20;11.80;79.60
29663;DHT22;16578;53.266;7.920;2023-02-03T01:41:46;11.90;79.50
29663;DHT22;16578;53.266;7.920;2023-02-03T01:44:41;11.90;79.50
29663;DHT22;16578;53.266;7.920;2023-02-03T01:47:15;11.90;79.40
29663;DHT22;16578;53.266;7.920;2023-02-03T01:49:45;11.90;79.50
29663;DHT22;16578;53.266;7.920;2023-02-03T01:52:12;11.90;79.50
29663;DHT22;16578;53.266;7.920;2023-02-03T01:54:40;11.90;79.50
29663;DHT22;16578;53.266;7.920;2023-02-03T01:57:39;11.90;79.40
29663;DHT22;16578;53.266;7.920;2023-02-03T02:00:06;11.90;79.10
29663;DHT22;16578;53.266;7.920;2023-02-03T02:02:34;11.90;79.30
29663;DHT22;16578;53.266;7.920;2023-02-03T02:05:12;11.90;79.20
29663;DHT22;16578;53.266;7.920;2023-02-03T02:07:41;11.90;79.00
29663;DHT22;16578;53.266;7.920;2023-02-03T02:10:08;11.90;79.10
29663;DHT22;16578;53.266;7.920;2023-02-03T02:12:34;11.90;79.10
29663;DHT22;16578;53.266;7.920;2023-02-03T02:14:59;11.90;79.10
29663;DHT22;16578;53.266;7.920;2023-02-03T02:17:50;11.90;79.10
29663;DHT22;16578;53.266;7.920;2023-02-03T02:32:04;11.90;78.80
29663;DHT22;16578;53.266;7.920;2023-02-03T02:34:46;11.90;78.70
29663;DHT22;16578;53.266;7.920;2023-02-03T02:40:14;11.90;78.60
29663;DHT22;16578;53.266;7.920;2023-02-03T02:45:23;11.90;78.60
29663;DHT22;16578;53.266;7.920;2023-02-03T02:47:54;11.90;78.60
29663;DHT22;16578;53.266;7.920;2023-02-03T02:50:24;12.00;78.70
29663;DHT22;16578;53.266;7.920;2023-02-03T02:52:51;11.90;78.60
29663;DHT22;16578;53.266;7.920;2023-02-03T02:55:23;12.00;78.60
29663;DHT22;16578;53.266;7.920;2023-02-03T02:57:54;12.00;78.60
29663;DHT22;16578;53.266;7.920;2023-02-03T03:00:22;12.00;78.60
29663;DHT22;16578;53.266;7.920;2023-02-03T03:02:47;12.00;78.50
29663;DHT22;16578;53.266;7.920;2023-02-03T03:05:13;12.00;78.60
29663;DHT22;16578;53.266;7.920;2023-02-03T03:07:47;12.00;78.50
29663;DHT22;16578;53.266;7.920;2023-02-03T03:10:15;12.00;78.40
29663;DHT22;16578;53.266;7.920;2023-02-03T03:12:51;12.00;78.40
29663;DHT22;16578;53.266;7.920;2023-02-03T03:15:21;11.90;78.30
29663;DHT22;16578;53.266;7.920;2023-02-03T03:17:55;12.00;78.40
29663;DHT22;16578;53.266;7.920;2023-02-03T03:20:25;12.00;78.30
29663;DHT22;16578;53.266;7.920;2023-02-03T03:23:04;12.00;78.30
29663;DHT22;16578;53.266;7.920;2023-02-03T03:25:42;12.00;78.20
29663;DHT22;16578;53.266;7.920;2023-02-03T03:28:20;12.00;78.20
29663;DHT22;16578;53.266;7.920;2023-02-03T03:30:48;12.00;79.00
29663;DHT22;16578;53.266;7.920;2023-02-03T03:33:14;12.00;78.10
29663;DHT22;16578;53.266;7.920;2023-02-03T03:38:47;12.00;77.80
29663;DHT22;16578;53.266;7.920;2023-02-03T03:41:38;12.00;78.00
29663;DHT22;16578;53.266;7.920;2023-02-03T03:44:10;12.00;77.80
29663;DHT22;16578;53.266;7.920;2023-02-03T03:46:50;12.00;77.90
29663;DHT22;16578;53.266;7.920;2023-02-03T03:49:18;12.00;77.90
29663;DHT22;16578;53.266;7.920;2023-02-03T03:52:01;12.10;77.90
29663;DHT22;16578;53.266;7.920;2023-02-03T03:54:30;12.10;77.60
29663;DHT22;16578;53.266;7.920;2023-02-03T03:57:11;12.00;78.50
29663;DHT22;16578;53.266;7.920;2023-02-03T03:59:42;12.10;77.60
29663;DHT22;16578;53.266;7.920;2023-02-03T04:02:09;12.00;77.60
29663;DHT22;16578;53.266;7.920;2023-02-03T04:04:36;12.10;77.60
29663;DHT22;16578;53.266;7.920;2023-02-03T04:07:03;12.10;77.50
29663;DHT22;16578;53.266;7.920;2023-02-03T04:09:28;12.10;77.60
29663;DHT22;16578;53.266;7.920;2023-02-03T04:11:54;12.10;77.70
29663;DHT22;16578;53.266;7.920;2023-02-03T04:14:26;12.10;77.60
29663;DHT22;16578;53.266;7.920;2023-02-03T04:16:51;12.10;77.50
29663;DHT22;16578;53.266;7.920;2023-02-03T04:19:17;12.10;77.40
29663;DHT22;16578;53.266;7.920;2023-02-03T04:21:43;12.10;77.40
29663;DHT22;16578;53.266;7.920;2023-02-03T04:24:08;12.10;77.30
29663;DHT22;16578;53.266;7.920;2023-02-03T04:26:34;12.10;77.30
29663;DHT22;16578;53.266;7.920;2023-02-03T04:28:59;12.10;77.20
29663;DHT22;16578;53.266;7.920;2023-02-03T04:31:25;12.10;77.10
29663;DHT22;16578;53.266;7.920;2023-02-03T04:33:51;12.10;77.10
29663;DHT22;16578;53.266;7.920;2023-02-03T04:36:17;12.10;77.10
29663;DHT22;16578;53.266;7.920;2023-02-03T04:38:42;12.10;77.10
29663;DHT22;16578;53.266;7.920;2023-02-03T04:41:08;12.10;77.20
29663;DHT22;16578;53.266;7.920;2023-02-03T04:43:33;12.10;77.20
29663;DHT22;16578;53.266;7.920;2023-02-03T04:45:59;12.10;77.10
29663;DHT22;16578;53.266;7.920;2023-02-03T04:48:25;12.10;77.10
29663;DHT22;16578;53.266;7.920;2023-02-03T04:50:51;12.10;77.10
29663;DHT22;16578;53.266;7.920;2023-02-03T04:53:16;12.10;77.10
29663;DHT22;16578;53.266;7.920;2023-02-03T04:55:46;12.10;77.00
29663;DHT22;16578;53.266;7.920;2023-02-03T04:58:12;12.10;77.00
29663;DHT22;16578;53.266;7.920;2023-02-03T05:00:38;12.10;77.00
29663;DHT22;16578;53.266;7.920;2023-02-03T05:03:03;12.10;77.10
29663;DHT22;16578;53.266;7.920;2023-02-03T05:05:29;12.20;77.10
29663;DHT22;16578;53.266;7.920;2023-02-03T05:07:54;12.20;77.60
29663;DHT22;16578;53.266;7.920;2023-02-03T05:10:20;12.20;77.10
29663;DHT22;16578;53.266;7.920;2023-02-03T05:12:45;12.20;77.10
29663;DHT22;16578;53.266;7.920;2023-02-03T05:15:11;12.20;77.00
29663;DHT22;16578;53.266;7.920;2023-02-03T05:17:37;12.20;77.10
29663;DHT22;16578;53.266;7.920;2023-02-03T05:20:05;12.20;77.00
29663;DHT22;16578;53.266;7.920;2023-02-03T05:22:30;12.20;77.00
29663;DHT22;16578;53.266;7.920;2023-02-03T05:24:56;12.20;77.00
29663;DHT22;16578;53.266;7.920;2023-02-03T05:27:22;12.20;77.10
29663;DHT22;16578;53.266;7.920;2023-02-03T05:29:47;12.20;77.20
29663;DHT22;16578;53.266;7.920;2023-02-03T05:32:13;12.20;77.10
29663;DHT22;16578;53.266;7.920;2023-02-03T05:34:38;12.20;77.20
29663;DHT22;16578;53.266;7.920;2023-02-03T05:37:04;12.20;77.30
29663;DHT22;16578;53.266;7.920;2023-02-03T05:39:29;12.20;77.30
29663;DHT22;16578;53.266;7.920;2023-02-03T05:41:55;12.20;77.30
29663;DHT22;16578;53.266;7.920;2023-02-03T05:44:23;12.20;77.40
29663;DHT22;16578;53.266;7.920;2023-02-03T05:46:50;12.20;77.40
29663;DHT22;16578;53.266;7.920;2023-02-03T05:49:16;12.20;77.60
29663;DHT22;16578;53.266;7.920;2023-02-03T05:51:42;12.20;77.50
29663;DHT22;16578;53.266;7.920;2023-02-03T05:54:08;12.20;77.60
29663;DHT22;16578;53.266;7.920;2023-02-03T05:56:34;12.20;77.50
29663;DHT22;16578;53.266;7.920;2023-02-03T05:58:59;12.20;77.50
29663;DHT22;16578;53.266;7.920;2023-02-03T06:01:25;12.20;77.50
29663;DHT22;16578;53.266;7.920;2023-02-03T06:03:50;12.20;77.50
29663;DHT22;16578;53.266;7.920;2023-02-03T06:06:16;12.30;77.50
29663;DHT22;16578;53.266;7.920;2023-02-03T06:08:42;12.30;77.50
29663;DHT22;16578;53.266;7.920;2023-02-03T06:11:09;12.30;77.50
29663;DHT22;16578;53.266;7.920;2023-02-03T06:13:35;12.30;78.30
29663;DHT22;16578;53.266;7.920;2023-02-03T06:16:01;12.30;77.50
29663;DHT22;16578;53.266;7.920;2023-02-03T06:18:26;12.30;77.40
29663;DHT22;16578;53.266;7.920;2023-02-03T06:20:52;12.30;77.50
29663;DHT22;16578;53.266;7.920;2023-02-03T06:23:17;12.40;77.40
29663;DHT22;16578;53.266;7.920;2023-02-03T06:25:44;12.30;77.30
29663;DHT22;16578;53.266;7.920;2023-02-03T06:28:10;12.30;77.30
29663;DHT22;16578;53.266;7.920;2023-02-03T06:30:36;12.40;77.30
29663;DHT22;16578;53.266;7.920;2023-02-03T06:33:01;12.40;77.30
29663;DHT22;16578;53.266;7.920;2023-02-03T06:35:27;12.40;77.30
29663;DHT22;16578;53.266;7.920;2023-02-03T06:37:53;12.40;77.20
29663;DHT22;16578;53.266;7.920;2023-02-03T06:40:18;12.40;77.20
29663;DHT22;16578;53.266;7.920;2023-02-03T06:42:45;12.40;77.20
29663;DHT22;16578;53.266;7.920;2023-02-03T06:45:11;12.40;77.20
29663;DHT22;16578;53.266;7.920;2023-02-03T06:47:40;12.40;77.20
29663;DHT22;16578;53.266;7.920;2023-02-03T06:50:07;12.40;77.10
29663;DHT22;16578;53.266;7.920;2023-02-03T06:52:33;12.50;77.10
29663;DHT22;16578;53.266;7.920;2023-02-03T06:54:58;12.50;77.10
29663;DHT22;16578;53.266;7.920;2023-02-03T06:57:24;12.50;77.10
29663;DHT22;16578;53.266;7.920;2023-02-03T06:59:49;12.50;77.10
29663;DHT22;16578;53.266;7.920;2023-02-03T07:02:15;12.50;77.10
29663;DHT22;16578;53.266;7.920;2023-02-03T07:04:40;12.50;77.90
29663;DHT22;16578;53.266;7.920;2023-02-03T07:07:10;12.50;77.10
29663;DHT22;16578;53.266;7.920;2023-02-03T07:09:35;12.50;77.10
29663;DHT22;16578;53.266;7.920;2023-02-03T07:12:01;12.50;77.10
29663;DHT22;16578;53.266;7.920;2023-02-03T07:14:26;12.50;77.10
29663;DHT22;16578;53.266;7.920;2023-02-03T07:16:52;12.50;77.10
29663;DHT22;16578;53.266;7.920;2023-02-03T07:19:18;12.50;77.10
29663;DHT22;16578;53.266;7.920;2023-02-03T07:21:44;12.50;77.10
29663;DHT22;16578;53.266;7.920;2023-02-03T07:24:09;12.50;77.10
29663;DHT22;16578;53.266;7.920;2023-02-03T07:26:35;12.50;77.10
29663;DHT22;16578;53.266;7.920;2023-02-03T07:29:00;12.50;77.10
29663;DHT22;16578;53.266;7.920;2023-02-03T07:31:26;12.50;77.10
29663;DHT22;16578;53.266;7.920;2023-02-03T07:33:52;12.60;77.20
29663;DHT22;16578;53.266;7.920;2023-02-03T07:36:17;12.60;77.20
29663;DHT22;16578;53.266;7.920;2023-02-03T07:38:43;12.60;77.20
29663;DHT22;16578;53.266;7.920;2023-02-03T07:41:08;12.60;77.20
29663;DHT22;16578;53.266;7.920;2023-02-03T07:43:34;12.60;77.20
29663;DHT22;16578;53.266;7.920;2023-02-03T07:45:59;12.60;77.10
29663;DHT22;16578;53.266;7.920;2023-02-03T07:48:26;12.60;77.00
29663;DHT22;16578;53.266;7.920;2023-02-03T07:50:52;12.60;77.10
29663;DHT22;16578;53.266;7.920;2023-02-03T07:53:17;12.60;77.10
29663;DHT22;16578;53.266;7.920;2023-02-03T07:55:43;12.60;77.10
29663;DHT22;16578;53.266;7.920;2023-02-03T07:58:08;12.60;77.10
29663;DHT22;16578;53.266;7.920;2023-02-03T08:00:34;12.60;77.20
29663;DHT22;16578;53.266;7.920;2023-02-03T08:03:00;12.60;77.10
29663;DHT22;16578;53.266;7.920;2023-02-03T08:05:25;12.70;77.20
29663;DHT22;16578;53.266;7.920;2023-02-03T08:07:51;12.60;77.20
29663;DHT22;16578;53.266;7.920;2023-02-03T08:10:16;12.60;77.20
29663;DHT22;16578;53.266;7.920;2023-02-03T08:12:42;12.70;77.30
29663;DHT22;16578;53.266;7.920;2023-02-03T08:15:09;12.70;77.30
29663;DHT22;16578;53.266;7.920;2023-02-03T08:17:35;12.70;77.30
29663;DHT22;16578;53.266;7.920;2023-02-03T08:20:01;12.70;77.30
29663;DHT22;16578;53.266;7.920;2023-02-03T08:22:26;12.70;77.30
29663;DHT22;16578;53.266;7.920;2023-02-03T08:24:52;12.80;77.40
29663;DHT22;16578;53.266;7.920;2023-02-03T08:27:19;12.80;77.30
29663;DHT22;16578;53.266;7.920;2023-02-03T08:29:45;12.80;77.30
29663;DHT22;16578;53.266;7.920;2023-02-03T08:32:17;12.80;77.20
29663;DHT22;16578;53.266;7.920;2023-02-03T08:34:43;12.80;77.10
29663;DHT22;16578;53.266;7.920;2023-02-03T08:37:11;12.90;77.20
29663;DHT22;16578;53.266;7.920;2023-02-03T08:39:38;12.90;77.00
29663;DHT22;16578;53.266;7.920;2023-02-03T08:42:04;12.90;77.00
29663;DHT22;16578;53.266;7.920;2023-02-03T08:44:30;12.90;77.00
29663;DHT22;16578;53.266;7.920;2023-02-03T08:46:56;13.00;76.90
29663;DHT22;16578;53.266;7.920;2023-02-03T08:49:28;12.90;76.70
29663;DHT22;16578;53.266;7.920;2023-02-03T08:51:54;12.90;76.40
29663;DHT22;16578;53.266;7.920;2023-02-03T08:54:21;12.90;76.00
29663;DHT22;16578;53.266;7.920;2023-02-03T08:56:47;12.90;73.80
29663;DHT22;16578;53.266;7.920;2023-02-03T08:59:13;12.80;72.70
29663;DHT22;16578;53.266;7.920;2023-02-03T09:01:39;12.70;71.40
29663;DHT22;16578;53.266;7.920;2023-02-03T09:04:06;12.60;70.10
29663;DHT22;16578;53.266;7.920;2023-02-03T09:06:33;12.50;70.80
29663;DHT22;16578;53.266;7.920;2023-02-03T09:08:58;12.40;70.60
29663;DHT22;16578;53.266;7.920;2023-02-03T09:11:24;12.30;70.80
29663;DHT22;16578;53.266;7.920;2023-02-03T09:13:49;12.20;71.40
29663;DHT22;16578;53.266;7.920;2023-02-03T09:16:17;12.20;72.20
29663;DHT22;16578;53.266;7.920;2023-02-03T09:18:44;12.20;73.00
29663;DHT22;16578;53.266;7.920;2023-02-03T09:21:11;12.20;73.90
29663;DHT22;16578;53.266;7.920;2023-02-03T09:23:37;12.20;74.40
29663;DHT22;16578;53.266;7.920;2023-02-03T09:26:04;12.30;74.90
29663;DHT22;16578;53.266;7.920;2023-02-03T09:28:31;12.30;75.30
29663;DHT22;16578;53.266;7.920;2023-02-03T09:31:05;12.40;75.50
29663;DHT22;16578;53.266;7.920;2023-02-03T09:33:31;12.40;75.50
29663;DHT22;16578;53.266;7.920;2023-02-03T09:35:57;12.50;75.60
29663;DHT22;16578;53.266;7.920;2023-02-03T09:38:24;12.50;75.60
29663;DHT22;16578;53.266;7.920;2023-02-03T09:40:56;12.60;75.50
29663;DHT22;16578;53.266;7.920;2023-02-03T09:46:33;12.60;75.20
29663;DHT22;16578;53.266;7.920;2023-02-03T09:49:16;12.70;74.80
29663;DHT22;16578;53.266;7.920;2023-02-03T09:51:54;12.70;74.70
29663;DHT22;16578;53.266;7.920;2023-02-03T09:54:41;12.70;74.50
29663;DHT22;16578;53.266;7.920;2023-02-03T09:57:17;12.70;74.10
29663;DHT22;16578;53.266;7.920;2023-02-03T09:59:43;12.70;74.30
29663;DHT22;16578;53.266;7.920;2023-02-03T10:04:43;12.70;74.10
29663;DHT22;16578;53.266;7.920;2023-02-03T10:10:31;12.80;73.70
29663;DHT22;16578;53.266;7.920;2023-02-03T10:18:10;12.80;73.40
29663;DHT22;16578;53.266;7.920;2023-02-03T10:20:47;12.80;73.30
29663;DHT22;16578;53.266;7.920;2023-02-03T10:23:17;12.80;73.30
29663;DHT22;16578;53.266;7.920;2023-02-03T10:25:53;12.80;73.10
29663;DHT22;16578;53.266;7.920;2023-02-03T10:28:22;12.80;73.10
29663;DHT22;16578;53.266;7.920;2023-02-03T10:30:59;12.80;73.30
29663;DHT22;16578;53.266;7.920;2023-02-03T10:33:26;12.80;72.70
29663;DHT22;16578;53.266;7.920;2023-02-03T10:41:36;12.80;72.60
29663;DHT22;16578;53.266;7.920;2023-02-03T10:44:04;12.80;72.90
29663;DHT22;16578;53.266;7.920;2023-02-03T10:46:32;12.80;72.90
29663;DHT22;16578;53.266;7.920;2023-02-03T10:48:59;12.80;72.10
29663;DHT22;16578;53.266;7.920;2023-02-03T10:51:36;12.80;71.90
29663;DHT22;16578;53.266;7.920;2023-02-03T10:54:03;12.80;72.10
29663;DHT22;16578;53.266;7.920;2023-02-03T10:56:35;12.90;72.40
29663;DHT22;16578;53.266;7.920;2023-02-03T10:59:02;12.90;72.10
29663;DHT22;16578;53.266;7.920;2023-02-03T11:01:39;12.90;71.90
29663;DHT22;16578;53.266;7.920;2023-02-03T11:04:06;12.90;71.20
29663;DHT22;16578;53.266;7.920;2023-02-03T11:06:32;12.90;71.50
29663;DHT22;16578;53.266;7.920;2023-02-03T11:08:58;12.90;70.80
29663;DHT22;16578;53.266;7.920;2023-02-03T11:11:30;13.00;71.20
29663;DHT22;16578;53.266;7.920;2023-02-03T11:16:33;13.00;71.00
29663;DHT22;16578;53.266;7.920;2023-02-03T11:19:04;13.00;71.30
29663;DHT22;16578;53.266;7.920;2023-02-03T11:24:04;13.00;70.40
29663;DHT22;16578;53.266;7.920;2023-02-03T11:26:43;13.00;70.60
29663;DHT22;16578;53.266;7.920;2023-02-03T11:29:23;13.10;69.80
29663;DHT22;16578;53.266;7.920;2023-02-03T11:31:52;13.10;70.10
29663;DHT22;16578;53.266;7.920;2023-02-03T11:34:27;13.10;70.10
29663;DHT22;16578;53.266;7.920;2023-02-03T11:36:53;13.10;69.80
29663;DHT22;16578;53.266;7.920;2023-02-03T11:41:47;13.20;68.70
29663;DHT22;16578;53.266;7.920;2023-02-03T11:44:21;13.20;67.90
29663;DHT22;16578;53.266;7.920;2023-02-03T11:46:50;13.20;66.70
29663;DHT22;16578;53.266;7.920;2023-02-03T11:49:33;13.20;67.00
29663;DHT22;16578;53.266;7.920;2023-02-03T11:52:21;13.20;67.10
29663;DHT22;16578;53.266;7.920;2023-02-03T11:57:58;13.20;67.00
29663;DHT22;16578;53.266;7.920;2023-02-03T12:00:37;13.30;66.00
29663;DHT22;16578;53.266;7.920;2023-02-03T12:13:04;13.20;66.20
29663;DHT22;16578;53.266;7.920;2023-02-03T12:26:20;13.10;64.80
29663;DHT22;16578;53.266;7.920;2023-02-03T12:29:02;13.10;65.40
29663;DHT22;16578;53.266;7.920;2023-02-03T12:40:46;13.10;65.70
29663;DHT22;16578;53.266;7.920;2023-02-03T12:43:20;13.10;65.20
29663;DHT22;16578;53.266;7.920;2023-02-03T12:46:14;13.10;65.80
29663;DHT22;16578;53.266;7.920;2023-02-03T12:48:59;13.10;65.20
29663;DHT22;16578;53.266;7.920;2023-02-03T12:51:46;13.10;65.80
29663;DHT22;16578;53.266;7.920;2023-02-03T12:54:40;13.10;65.10
29663;DHT22;16578;53.266;7.920;2023-02-03T13:06:29;13.00;65.50
29663;DHT22;16578;53.266;7.920;2023-02-03T13:08:42;12.90;65.40
29663;DHT22;16578;53.266;7.920;2023-02-03T13:11:10;12.90;66.10
29663;DHT22;16578;53.266;7.920;2023-02-03T13:13:47;12.90;66.20
29663;DHT22;16578;53.266;7.920;2023-02-03T13:16:15;12.90;65.60
29663;DHT22;16578;53.266;7.920;2023-02-03T13:18:51;12.90;65.30
29663;DHT22;16578;53.266;7.920;2023-02-03T13:21:17;12.90;64.60
29663;DHT22;16578;53.266;7.920;2023-02-03T13:23:43;12.80;64.90
29663;DHT22;16578;53.266;7.920;2023-02-03T13:28:59;12.70;64.30
29663;DHT22;16578;53.266;7.920;2023-02-03T13:32:00;12.70;64.30
29663;DHT22;16578;53.266;7.920;2023-02-03T13:37:39;12.60;64.30
29663;DHT22;16578;53.266;7.920;2023-02-03T13:40:26;12.60;64.80
29663;DHT22;16578;53.266;7.920;2023-02-03T13:43:01;12.60;64.60
29663;DHT22;16578;53.266;7.920;2023-02-03T13:45:32;12.60;65.20
29663;DHT22;16578;53.266;7.920;2023-02-03T13:48:22;12.60;65.00
29663;DHT22;16578;53.266;7.920;2023-02-03T13:50:50;12.50;65.00
29663;DHT22;16578;53.266;7.920;2023-02-03T13:53:26;12.60;65.60
29663;DHT22;16578;53.266;7.920;2023-02-03T13:55:58;12.60;65.60
29663;DHT22;16578;53.266;7.920;2023-02-03T13:58:30;12.50;66.50
29663;DHT22;16578;53.266;7.920;2023-02-03T14:00:58;12.50;65.50
29663;DHT22;16578;53.266;7.920;2023-02-03T14:05:50;12.60;65.20
29663;DHT22;16578;53.266;7.920;2023-02-03T14:16:49;12.50;64.50
29663;DHT22;16578;53.266;7.920;2023-02-03T14:21:51;12.50;65.10
29663;DHT22;16578;53.266;7.920;2023-02-03T14:24:18;12.50;64.90
29663;DHT22;16578;53.266;7.920;2023-02-03T14:26:51;12.40;64.80
29663;DHT22;16578;53.266;7.920;2023-02-03T14:29:35;12.50;64.90
29663;DHT22;16578;53.266;7.920;2023-02-03T14:32:04;12.40;65.00
29663;DHT22;16578;53.266;7.920;2023-02-03T14:34:44;12.40;65.60
29663;DHT22;16578;53.266;7.920;2023-02-03T14:37:30;12.50;65.70
29663;DHT22;16578;53.266;7.920;2023-02-03T14:40:23;12.40;65.50
29663;DHT22;16578;53.266;7.920;2023-02-03T14:43:05;12.40;65.70
29663;DHT22;16578;53.266;7.920;2023-02-03T14:51:36;12.40;66.10
29663;DHT22;16578;53.266;7.920;2023-02-03T14:59:47;12.30;66.40
29663;DHT22;16578;53.266;7.920;2023-02-03T15:02:16;12.20;66.50
29663;DHT22;16578;53.266;7.920;2023-02-03T15:04:44;12.20;66.70
29663;DHT22;16578;53.266;7.920;2023-02-03T15:07:34;12.20;66.80
29663;DHT22;16578;53.266;7.920;2023-02-03T15:09:59;12.20;66.80
29663;DHT22;16578;53.266;7.920;2023-02-03T15:12:26;12.20;67.00
29663;DHT22;16578;53.266;7.920;2023-02-03T15:14:52;12.10;67.00
29663;DHT22;16578;53.266;7.920;2023-02-03T15:17:26;12.10;67.90
29663;DHT22;16578;53.266;7.920;2023-02-03T15:19:53;12.10;67.10
29663;DHT22;16578;53.266;7.920;2023-02-03T15:22:19;12.10;67.10
29663;DHT22;16578;53.266;7.920;2023-02-03T15:24:45;12.10;66.80
29663;DHT22;16578;53.266;7.920;2023-02-03T15:27:40;12.00;66.80
29663;DHT22;16578;53.266;7.920;2023-02-03T15:30:24;12.00;66.40
29663;DHT22;16578;53.266;7.920;2023-02-03T15:33:12;12.00;66.60
29663;DHT22;16578;53.266;7.920;2023-02-03T15:35:40;12.00;66.60
29663;DHT22;16578;53.266;7.920;2023-02-03T15:38:14;12.00;67.10
29663;DHT22;16578;53.266;7.920;2023-02-03T15:40:44;12.00;67.10
29663;DHT22;16578;53.266;7.920;2023-02-03T15:45:46;11.90;67.10
29663;DHT22;16578;53.266;7.920;2023-02-03T15:48:31;12.00;67.30
29663;DHT22;16578;53.266;7.920;2023-02-03T15:56:27;11.90;67.40
29663;DHT22;16578;53.266;7.920;2023-02-03T15:58:55;11.90;67.50
29663;DHT22;16578;53.266;7.920;2023-02-03T16:01:23;11.90;67.70
29663;DHT22;16578;53.266;7.920;2023-02-03T16:03:53;11.90;67.80
29663;DHT22;16578;53.266;7.920;2023-02-03T16:08:51;11.90;67.90
29663;DHT22;16578;53.266;7.920;2023-02-03T16:11:36;11.90;67.90
29663;DHT22;16578;53.266;7.920;2023-02-03T16:14:08;11.90;67.80
29663;DHT22;16578;53.266;7.920;2023-02-03T16:16:42;11.90;67.80
29663;DHT22;16578;53.266;7.920;2023-02-03T16:19:15;11.90;67.80
29663;DHT22;16578;53.266;7.920;2023-02-03T16:30:19;11.70;67.50
29663;DHT22;16578;53.266;7.920;2023-02-03T16:33:15;11.60;67.80
29663;DHT22;16578;53.266;7.920;2023-02-03T16:36:09;11.60;67.70
29663;DHT22;16578;53.266;7.920;2023-02-03T16:38:54;11.60;67.60
29663;DHT22;16578;53.266;7.920;2023-02-03T16:41:38;11.60;67.80
29663;DHT22;16578;53.266;7.920;2023-02-03T16:44:22;11.50;67.80
29663;DHT22;16578;53.266;7.920;2023-02-03T16:47:27;11.50;67.80
29663;DHT22;16578;53.266;7.920;2023-02-03T16:50:22;11.50;67.90
29663;DHT22;16578;53.266;7.920;2023-02-03T16:53:21;11.50;68.20
29663;DHT22;16578;53.266;7.920;2023-02-03T16:55:49;11.50;68.20
29663;DHT22;16578;53.266;7.920;2023-02-03T16:58:15;11.50;68.40
29663;DHT22;16578;53.266;7.920;2023-02-03T17:00:43;11.40;68.50
29663;DHT22;16578;53.266;7.920;2023-02-03T17:03:13;11.50;68.70
29663;DHT22;16578;53.266;7.920;2023-02-03T17:05:41;11.40;68.70
29663;DHT22;16578;53.266;7.920;2023-02-03T17:08:07;11.40;68.80
29663;DHT22;16578;53.266;7.920;2023-02-03T17:10:37;11.40;68.90
29663;DHT22;16578;53.266;7.920;2023-02-03T17:13:03;11.40;69.00
29663;DHT22;16578;53.266;7.920;2023-02-03T17:15:29;11.40;69.10
29663;DHT22;16578;53.266;7.920;2023-02-03T17:17:56;11.40;69.00
29663;DHT22;16578;53.266;7.920;2023-02-03T17:20:22;11.40;69.20
29663;DHT22;16578;53.266;7.920;2023-02-03T17:22:47;11.40;69.20
29663;DHT22;16578;53.266;7.920;2023-02-03T17:25:16;11.40;69.30
29663;DHT22;16578;53.266;7.920;2023-02-03T17:27:42;11.40;69.30
29663;DHT22;16578;53.266;7.920;2023-02-03T17:30:07;11.40;69.20
29663;DHT22;16578;53.266;7.920;2023-02-03T17:32:33;11.40;69.20
29663;DHT22;16578;53.266;7.920;2023-02-03T17:34:59;11.50;69.20
29663;DHT22;16578;53.266;7.920;2023-02-03T17:37:26;11.40;69.20
29663;DHT22;16578;53.266;7.920;2023-02-03T17:39:52;11.40;69.10
29663;DHT22;16578;53.266;7.920;2023-02-03T17:42:18;11.40;69.20
29663;DHT22;16578;53.266;7.920;2023-02-03T17:44:43;11.40;69.30
29663;DHT22;16578;53.266;7.920;2023-02-03T17:47:09;11.50;69.40
29663;DHT22;16578;53.266;7.920;2023-02-03T17:49:35;11.50;69.40
29663;DHT22;16578;53.266;7.920;2023-02-03T17:52:00;11.50;69.30
29663;DHT22;16578;53.266;7.920;2023-02-03T17:54:26;11.50;69.20
29663;DHT22;16578;53.266;7.920;2023-02-03T17:56:52;11.40;69.20
29663;DHT22;16578;53.266;7.920;2023-02-03T17:59:17;11.40;69.30
29663;DHT22;16578;53.266;7.920;2023-02-03T18:01:43;11.40;69.30
29663;DHT22;16578;53.266;7.920;2023-02-03T18:04:08;11.40;69.30
29663;DHT22;16578;53.266;7.920;2023-02-03T18:06:34;11.40;69.30